Time;durP1;ratioP1;P1;durP2;ratioP2;P2;SDS_P1;SDS_P2;PMS_P1;PMS_P2;Temp;Humidity;BMP_temperature;BMP_pressure;BME280_temperature;BME280_humidity;BME280_pressure;Samples;Min_cycle;Max_cycle;Signal;HPM_P1;HPM_P2
2022/04/30 00:02:11;;;;;;;;;34.00;27.25;;;;;;;;5019250;28;11550;-74
2022/04/30 00:04:39;;;;;;;;;32.75;31.75;;;;;;;;5018160;28;11631;-75
2022/04/30 00:07:07;;;;;;;;;38.00;33.75;;;;;;;;5011714;28;11601;-75
2022/04/30 00:09:34;;;;;;;;;31.75;27.75;;;;;;;;5014724;28;11614;-75
2022/04/30 00:12:03;;;;;;;;;29.00;27.50;;;;;;;;5019045;28;11629;-75
2022/04/30 00:14:30;;;;;;;;;32.25;29.25;;;;;;;;5020877;28;12359;-75
2022/04/30 00:16:57;;;;;;;;;33.50;26.75;;;;;;;;5013449;28;11633;-75
2022/04/30 00:19:25;;;;;;;;;29.50;28.50;;;;;;;;5020172;28;11631;-74
2022/04/30 00:21:52;;;;;;;;;31.50;31.50;;;;;;;;5018416;28;11599;-75
2022/04/30 00:24:20;;;;;;;;;39.00;30.25;;;;;;;;5017273;28;12360;-74
2022/04/30 00:26:47;;;;;;;;;30.00;29.00;;;;;;;;5016858;28;11591;-74
2022/04/30 00:29:16;;;;;;;;;30.25;26.25;;;;;;;;5014250;28;11612;-75
2022/04/30 00:31:44;;;;;;;;;37.50;29.00;;;;;;;;5016568;28;11605;-75
2022/04/30 00:34:11;;;;;;;;;31.75;25.00;;;;;;;;5018995;28;11617;-74
2022/04/30 00:36:39;;;;;;;;;30.50;28.25;;;;;;;;5020655;28;12092;-74
2022/04/30 00:39:06;;;;;;;;;34.25;27.50;;;;;;;;5009750;28;11601;-74
2022/04/30 00:41:34;;;;;;;;;32.75;26.50;;;;;;;;5020664;28;11624;-74
2022/04/30 00:44:02;;;;;;;;;32.50;28.25;;;;;;;;5023090;28;11601;-74
2022/04/30 00:46:30;;;;;;;;;27.75;24.00;;;;;;;;5016674;28;11675;-75
2022/04/30 00:48:58;;;;;;;;;30.75;28.75;;;;;;;;5023849;28;11576;-74
2022/04/30 00:51:28;;;;;;;;;25.00;24.75;;;;;;;;5013946;28;11653;-74
2022/04/30 00:53:57;;;;;;;;;24.50;24.25;;;;;;;;5020243;28;11578;-74
2022/04/30 00:56:29;;;;;;;;;38.50;31.25;;;;;;;;5008222;28;11675;-75
2022/04/30 00:58:57;;;;;;;;;23.00;21.50;;;;;;;;5021495;28;11602;-74
2022/04/30 01:01:25;;;;;;;;;21.00;18.25;;;;;;;;5021001;28;11536;-75
2022/04/30 01:03:53;;;;;;;;;32.75;29.25;;;;;;;;5020508;28;11611;-73
2022/04/30 01:06:26;;;;;;;;;27.00;23.50;;;;;;;;5017350;28;11627;-75
2022/04/30 01:08:54;;;;;;;;;31.75;28.75;;;;;;;;5018128;28;12506;-74
2022/04/30 01:11:22;;;;;;;;;31.25;28.50;;;;;;;;5019999;28;11950;-74
2022/04/30 01:13:50;;;;;;;;;33.00;31.00;;;;;;;;5018247;28;11603;-74
2022/04/30 01:16:18;;;;;;;;;26.25;26.00;;;;;;;;5015720;28;11725;-74
2022/04/30 01:18:46;;;;;;;;;28.50;24.75;;;;;;;;5021297;28;11724;-74
2022/04/30 01:21:15;;;;;;;;;21.50;21.50;;;;;;;;5018201;28;11748;-75
2022/04/30 01:23:45;;;;;;;;;39.50;33.25;;;;;;;;5015728;28;12335;-74
2022/04/30 01:26:17;;;;;;;;;33.75;31.25;;;;;;;;5015604;28;11608;-75
2022/04/30 01:28:45;;;;;;;;;35.75;31.50;;;;;;;;5028609;28;11572;-74
2022/04/30 01:39:23;;;;;;;;;29.50;28.50;;;;;;;;5015124;28;11584;-75
2022/04/30 01:41:51;;;;;;;;;34.00;32.75;;;;;;;;5021799;28;11576;-74
2022/04/30 01:44:19;;;;;;;;;28.50;25.75;;;;;;;;5010670;28;12339;-75
2022/04/30 01:46:46;;;;;;;;;31.50;28.75;;;;;;;;5019866;28;11607;-74
2022/04/30 01:49:16;;;;;;;;;30.25;29.00;;;;;;;;5022761;28;11724;-74
2022/04/30 01:51:50;;;;;;;;;25.25;22.50;;;;;;;;5014227;28;11606;-74
2022/04/30 01:54:18;;;;;;;;;27.50;24.50;;;;;;;;5018007;28;12990;-75
2022/04/30 01:56:47;;;;;;;;;34.25;28.00;;;;;;;;5019428;28;12792;-75
2022/04/30 01:59:14;;;;;;;;;35.00;29.50;;;;;;;;5019995;28;12436;-76
2022/04/30 02:01:44;;;;;;;;;27.75;24.75;;;;;;;;5016033;28;11562;-75
2022/04/30 02:04:12;;;;;;;;;27.50;27.00;;;;;;;;5017680;28;11662;-75
2022/04/30 02:06:39;;;;;;;;;34.75;33.25;;;;;;;;5021571;28;11615;-74
2022/04/30 02:09:06;;;;;;;;;28.75;26.00;;;;;;;;5007118;28;11616;-75
2022/04/30 02:11:34;;;;;;;;;26.25;25.00;;;;;;;;5013855;28;11683;-75
2022/04/30 02:14:03;;;;;;;;;27.75;23.25;;;;;;;;5007345;28;11613;-76
2022/04/30 02:16:32;;;;;;;;;30.50;29.00;;;;;;;;5016762;28;11630;-75
2022/04/30 02:19:00;;;;;;;;;31.00;28.25;;;;;;;;5019778;28;11588;-74
2022/04/30 02:21:30;;;;;;;;;30.50;28.00;;;;;;;;5019182;28;11615;-74
2022/04/30 02:23:58;;;;;;;;;27.00;22.25;;;;;;;;5045663;28;12546;-74
2022/04/30 02:26:27;;;;;;;;;34.75;29.25;;;;;;;;5017896;28;11601;-75
2022/04/30 02:28:56;;;;;;;;;25.50;24.75;;;;;;;;5022011;28;11597;-74
2022/04/30 02:31:26;;;;;;;;;30.25;25.25;;;;;;;;5013005;28;12425;-75
2022/04/30 02:33:55;;;;;;;;;38.25;30.25;;;;;;;;5018751;28;12421;-74
2022/04/30 02:36:26;;;;;;;;;32.25;29.25;;;;;;;;5022769;28;12441;-74
2022/04/30 02:38:54;;;;;;;;;36.50;33.25;;;;;;;;5012632;28;11605;-74
2022/04/30 02:41:22;;;;;;;;;34.50;28.25;;;;;;;;5016636;28;11607;-74
2022/04/30 02:43:50;;;;;;;;;38.00;30.50;;;;;;;;5017598;28;11621;-74
2022/04/30 02:46:18;;;;;;;;;38.00;28.75;;;;;;;;5022549;28;11597;-75
2022/04/30 02:48:46;;;;;;;;;33.50;29.25;;;;;;;;5027388;28;11615;-74
2022/04/30 02:51:15;;;;;;;;;30.50;28.50;;;;;;;;5027627;28;11568;-75
2022/04/30 02:53:43;;;;;;;;;38.50;33.25;;;;;;;;5014165;28;11625;-76
2022/04/30 02:56:11;;;;;;;;;35.25;34.25;;;;;;;;5008796;28;11601;-73
2022/04/30 03:01:24;;;;;;;;;29.50;25.25;;;;;;;;5006532;28;11554;-74
2022/04/30 03:03:53;;;;;;;;;32.25;28.75;;;;;;;;5020191;28;11621;-74
2022/04/30 03:06:22;;;;;;;;;32.25;26.00;;;;;;;;5014436;28;11652;-74
2022/04/30 03:08:50;;;;;;;;;38.25;32.50;;;;;;;;5015280;28;11624;-74
2022/04/30 03:11:19;;;;;;;;;36.75;29.75;;;;;;;;5008537;28;11611;-74
2022/04/30 03:13:47;;;;;;;;;36.50;32.75;;;;;;;;5017358;28;11600;-73
2022/04/30 03:21:46;;;;;;;;;38.25;37.75;;;;;;;;5022366;28;11593;-74
2022/04/30 03:24:16;;;;;;;;;35.25;31.25;;;;;;;;5018907;28;11704;-75
2022/04/30 03:26:44;;;;;;;;;44.00;30.00;;;;;;;;5010798;28;11688;-74
2022/04/30 03:29:11;;;;;;;;;36.25;32.25;;;;;;;;5013002;28;11611;-76
2022/04/30 03:31:39;;;;;;;;;28.50;27.75;;;;;;;;5026377;28;11671;-75
2022/04/30 03:34:08;;;;;;;;;37.50;37.00;;;;;;;;5014496;28;11596;-74
2022/04/30 03:36:35;;;;;;;;;32.50;27.00;;;;;;;;5013918;28;11617;-74
2022/04/30 03:39:03;;;;;;;;;39.00;33.75;;;;;;;;5015852;28;11629;-74
2022/04/30 03:41:30;;;;;;;;;32.25;29.25;;;;;;;;5015473;28;11635;-75
2022/04/30 03:43:57;;;;;;;;;39.50;34.25;;;;;;;;5017901;28;11594;-74
2022/04/30 03:46:25;;;;;;;;;43.50;35.75;;;;;;;;5018030;28;11601;-75
2022/04/30 03:48:53;;;;;;;;;36.00;33.00;;;;;;;;5001524;28;12458;-75
2022/04/30 03:51:22;;;;;;;;;42.50;36.75;;;;;;;;5011204;28;11591;-76
2022/04/30 03:53:50;;;;;;;;;37.00;34.00;;;;;;;;5018791;28;11570;-74
2022/04/30 03:56:17;;;;;;;;;39.75;35.00;;;;;;;;5018250;28;11595;-74
2022/04/30 03:58:46;;;;;;;;;39.00;37.25;;;;;;;;5015835;28;11604;-75
2022/04/30 04:01:14;;;;;;;;;47.25;40.75;;;;;;;;5013772;28;11541;-74
2022/04/30 04:03:42;;;;;;;;;35.75;32.75;;;;;;;;5012512;28;11661;-74
2022/04/30 04:06:10;;;;;;;;;45.50;38.50;;;;;;;;5014886;28;11730;-74
2022/04/30 04:08:38;;;;;;;;;41.75;39.25;;;;;;;;5017673;28;11613;-75
2022/04/30 04:11:10;;;;;;;;;33.75;32.75;;;;;;;;5016615;28;11666;-75
2022/04/30 04:19:07;;;;;;;;;37.00;35.00;;;;;;;;5008511;28;11600;-73
2022/04/30 04:21:34;;;;;;;;;33.00;31.25;;;;;;;;5020623;28;11640;-74
2022/04/30 04:26:48;;;;;;;;;34.75;32.75;;;;;;;;5024778;28;11702;-75
2022/04/30 04:29:16;;;;;;;;;30.50;28.25;;;;;;;;5018835;28;11590;-74
2022/04/30 04:31:44;;;;;;;;;39.50;33.75;;;;;;;;5030391;28;11537;-74
2022/04/30 04:34:11;;;;;;;;;44.25;35.50;;;;;;;;5011151;28;11589;-75
2022/04/30 04:36:38;;;;;;;;;38.00;33.50;;;;;;;;5016931;28;11642;-75
2022/04/30 04:39:13;;;;;;;;;26.25;25.25;;;;;;;;5014435;28;11571;-75
2022/04/30 04:41:41;;;;;;;;;30.00;27.25;;;;;;;;5022480;28;11599;-76
2022/04/30 04:44:08;;;;;;;;;32.25;25.25;;;;;;;;5013338;28;11601;-75
2022/04/30 04:46:36;;;;;;;;;30.25;28.50;;;;;;;;5020082;28;11617;-74
2022/04/30 04:49:06;;;;;;;;;26.00;24.25;;;;;;;;5011751;28;11609;-74
2022/04/30 04:51:34;;;;;;;;;29.75;29.75;;;;;;;;5006057;28;11537;-75
2022/04/30 04:54:02;;;;;;;;;32.00;25.25;;;;;;;;5005251;28;11749;-74
2022/04/30 04:56:31;;;;;;;;;23.00;17.00;;;;;;;;5013420;28;11521;-74
2022/04/30 04:59:00;;;;;;;;;26.25;24.25;;;;;;;;5025309;28;11543;-74
2022/04/30 05:01:27;;;;;;;;;22.75;21.50;;;;;;;;5022116;28;11525;-74
2022/04/30 05:03:55;;;;;;;;;26.75;24.75;;;;;;;;5014469;28;11651;-74
2022/04/30 05:06:22;;;;;;;;;29.25;26.00;;;;;;;;5011817;28;11652;-74
2022/04/30 05:08:49;;;;;;;;;29.75;28.50;;;;;;;;5033457;28;11616;-74
2022/04/30 05:11:16;;;;;;;;;27.00;26.00;;;;;;;;5006836;28;11546;-74
2022/04/30 05:13:45;;;;;;;;;31.50;29.25;;;;;;;;5012337;28;11574;-74
2022/04/30 05:16:12;;;;;;;;;14.25;14.25;;;;;;;;5019562;28;11551;-74
2022/04/30 05:18:39;;;;;;;;;29.00;19.75;;;;;;;;5017822;28;11605;-74
2022/04/30 05:21:08;;;;;;;;;17.50;16.50;;;;;;;;5040877;28;12368;-74
2022/04/30 05:23:36;;;;;;;;;25.50;24.50;;;;;;;;5004867;28;11717;-75
2022/04/30 05:26:04;;;;;;;;;28.00;24.75;;;;;;;;5005724;28;11544;-74
2022/04/30 05:28:31;;;;;;;;;21.00;18.75;;;;;;;;5011635;28;11536;-75
2022/04/30 05:31:00;;;;;;;;;29.75;23.00;;;;;;;;5023472;28;12643;-74
2022/04/30 05:33:29;;;;;;;;;22.50;22.50;;;;;;;;5021456;28;11548;-73
2022/04/30 05:35:57;;;;;;;;;32.00;25.75;;;;;;;;5021924;28;11572;-73
2022/04/30 05:38:25;;;;;;;;;31.25;28.50;;;;;;;;5019237;28;11517;-73
2022/04/30 05:40:52;;;;;;;;;19.25;18.00;;;;;;;;5020128;28;11582;-74
2022/04/30 05:43:19;;;;;;;;;25.75;23.50;;;;;;;;5009738;28;11588;-74
2022/04/30 05:45:47;;;;;;;;;25.75;23.00;;;;;;;;5022104;28;11664;-74
2022/04/30 05:48:15;;;;;;;;;19.75;17.50;;;;;;;;5024287;28;11558;-75
2022/04/30 05:50:43;;;;;;;;;26.25;20.50;;;;;;;;5015996;28;11556;-75
2022/04/30 05:53:10;;;;;;;;;21.00;20.00;;;;;;;;5014387;28;12362;-75
2022/04/30 05:55:39;;;;;;;;;28.00;24.00;;;;;;;;5011187;28;11564;-75
2022/04/30 05:58:06;;;;;;;;;22.75;21.25;;;;;;;;5014973;28;11590;-75
2022/04/30 06:00:34;;;;;;;;;22.00;21.50;;;;;;;;5006725;28;11502;-75
2022/04/30 06:03:01;;;;;;;;;22.25;22.25;;;;;;;;5014262;28;11540;-75
2022/04/30 06:05:30;;;;;;;;;22.25;22.00;;;;;;;;5032737;28;11552;-74
2022/04/30 06:07:57;;;;;;;;;21.50;21.50;;;;;;;;5022693;28;11542;-75
2022/04/30 06:10:25;;;;;;;;;16.50;15.50;;;;;;;;5020048;28;11527;-73
2022/04/30 06:12:52;;;;;;;;;20.25;20.25;;;;;;;;5014015;28;11662;-73
2022/04/30 06:15:19;;;;;;;;;24.50;21.75;;;;;;;;5017651;28;11552;-73
2022/04/30 06:17:46;;;;;;;;;21.75;18.00;;;;;;;;5022064;28;11530;-74
2022/04/30 06:20:14;;;;;;;;;23.75;21.75;;;;;;;;5021136;28;12327;-73
2022/04/30 06:22:43;;;;;;;;;25.75;21.25;;;;;;;;5014397;28;12430;-73
2022/04/30 06:25:11;;;;;;;;;24.50;20.25;;;;;;;;5013159;28;11542;-75
2022/04/30 06:27:39;;;;;;;;;22.25;18.25;;;;;;;;5023522;28;11523;-74
2022/04/30 06:30:08;;;;;;;;;16.25;16.00;;;;;;;;5017539;28;12301;-74
2022/04/30 06:32:36;;;;;;;;;23.25;21.50;;;;;;;;5017578;28;11486;-74
2022/04/30 06:35:04;;;;;;;;;18.75;16.75;;;;;;;;5020945;28;11540;-74
2022/04/30 06:37:31;;;;;;;;;21.50;19.00;;;;;;;;5016027;28;11579;-73
2022/04/30 06:39:59;;;;;;;;;18.50;18.50;;;;;;;;5016382;28;11652;-74
2022/04/30 06:42:27;;;;;;;;;24.75;23.00;;;;;;;;5019129;28;11681;-74
2022/04/30 06:44:54;;;;;;;;;18.25;17.25;;;;;;;;5013331;28;11582;-75
2022/04/30 06:47:22;;;;;;;;;21.00;18.75;;;;;;;;5026375;28;11305;-75
2022/04/30 06:49:50;;;;;;;;;21.75;19.50;;;;;;;;5013658;28;11530;-74
2022/04/30 06:52:18;;;;;;;;;21.50;16.00;;;;;;;;5021427;28;11507;-75
2022/04/30 06:57:33;;;;;;;;;22.75;22.75;;;;;;;;5011387;28;11487;-74
2022/04/30 07:00:39;;;;;;;;;18.75;18.75;;;;;;;;5035079;28;11537;-75
2022/04/30 07:02:47;;;;;;;;;22.00;17.75;;;;;;;;5030083;28;11558;-75
2022/04/30 07:05:14;;;;;;;;;25.50;22.50;;;;;;;;5020491;28;11521;-74
2022/04/30 07:07:42;;;;;;;;;22.50;18.50;;;;;;;;5019228;28;11617;-74
2022/04/30 07:10:10;;;;;;;;;19.50;19.50;;;;;;;;5043219;28;11553;-79
2022/04/30 07:12:39;;;;;;;;;20.50;18.50;;;;;;;;5018324;28;12019;-81
2022/04/30 07:15:07;;;;;;;;;19.75;19.75;;;;;;;;5025288;28;11247;-83
2022/04/30 07:17:35;;;;;;;;;22.75;17.75;;;;;;;;5017478;28;11223;-82
2022/04/30 07:20:04;;;;;;;;;15.00;15.00;;;;;;;;5022161;28;11292;-82
2022/04/30 07:22:31;;;;;;;;;17.50;15.50;;;;;;;;5020013;28;11374;-83
2022/04/30 07:24:58;;;;;;;;;22.00;18.00;;;;;;;;5017935;28;11114;-82
2022/04/30 07:27:25;;;;;;;;;23.75;21.25;;;;;;;;5020730;28;11947;-83
2022/04/30 07:29:54;;;;;;;;;14.50;14.50;;;;;;;;5021723;28;11265;-84
2022/04/30 07:32:21;;;;;;;;;18.50;17.00;;;;;;;;5019480;28;10932;-84
2022/04/30 07:34:49;;;;;;;;;20.50;13.75;;;;;;;;5020422;28;10985;-85
2022/04/30 07:37:17;;;;;;;;;18.25;18.25;;;;;;;;5024567;28;11883;-83
2022/04/30 07:39:44;;;;;;;;;18.75;15.00;;;;;;;;5017455;28;10995;-77
2022/04/30 07:42:11;;;;;;;;;17.50;17.50;;;;;;;;5014048;28;11167;-79
2022/04/30 07:44:39;;;;;;;;;14.00;14.00;;;;;;;;5017150;28;10898;-76
2022/04/30 07:47:08;;;;;;;;;18.75;17.25;;;;;;;;5019297;28;10908;-74
2022/04/30 07:49:36;;;;;;;;;15.50;15.50;;;;;;;;5019394;28;10671;-76
2022/04/30 07:52:04;;;;;;;;;20.00;19.50;;;;;;;;5018852;28;11494;-75
2022/04/30 07:54:31;;;;;;;;;12.75;12.75;;;;;;;;5021363;28;10628;-79
2022/04/30 07:57:00;;;;;;;;;17.25;13.50;;;;;;;;5024331;28;10658;-75
2022/04/30 07:59:28;;;;;;;;;15.00;13.00;;;;;;;;5021384;28;10425;-73
2022/04/30 08:01:56;;;;;;;;;12.50;12.50;;;;;;;;5022728;28;10367;-75
2022/04/30 08:04:25;;;;;;;;;18.00;14.50;;;;;;;;5025410;28;11594;-78
2022/04/30 08:06:52;;;;;;;;;13.50;13.50;;;;;;;;5010063;28;10472;-75
2022/04/30 08:09:19;;;;;;;;;13.50;13.50;;;;;;;;5018091;28;10663;-75
2022/04/30 08:11:47;;;;;;;;;14.00;12.50;;;;;;;;5020572;28;10522;-78
2022/04/30 08:14:16;;;;;;;;;11.25;9.00;;;;;;;;5020309;28;10267;-79
2022/04/30 08:16:43;;;;;;;;;12.00;12.00;;;;;;;;5016391;28;10359;-77
2022/04/30 08:19:10;;;;;;;;;13.00;13.00;;;;;;;;5009935;28;10302;-77
2022/04/30 08:21:39;;;;;;;;;10.75;10.75;;;;;;;;5020904;28;10242;-80
2022/04/30 08:24:07;;;;;;;;;14.25;13.25;;;;;;;;5012910;28;10867;-74
2022/04/30 08:26:35;;;;;;;;;10.50;10.50;;;;;;;;5014178;28;10125;-73
2022/04/30 08:29:03;;;;;;;;;9.75;8.25;;;;;;;;5016970;28;10172;-75
2022/04/30 08:31:30;;;;;;;;;10.00;10.00;;;;;;;;5021398;28;10135;-75
2022/04/30 08:33:57;;;;;;;;;13.75;13.75;;;;;;;;5017634;28;10789;-77
2022/04/30 08:36:24;;;;;;;;;15.75;14.25;;;;;;;;5013184;28;9969;-78
2022/04/30 08:38:53;;;;;;;;;12.50;12.50;;;;;;;;5017885;28;9921;-78
2022/04/30 08:41:21;;;;;;;;;12.00;10.00;;;;;;;;5016510;28;9829;-77
2022/04/30 08:43:50;;;;;;;;;17.50;14.75;;;;;;;;5040503;28;9709;-76
2022/04/30 08:46:20;;;;;;;;;12.50;10.75;;;;;;;;5014886;28;9636;-75
2022/04/30 08:48:48;;;;;;;;;10.25;10.25;;;;;;;;5012562;28;9740;-76
2022/04/30 08:51:16;;;;;;;;;10.50;10.50;;;;;;;;5013635;28;10440;-77
2022/04/30 08:53:44;;;;;;;;;16.75;11.00;;;;;;;;5016415;28;9489;-77
2022/04/30 08:56:13;;;;;;;;;12.50;12.50;;;;;;;;5012742;28;9586;-78
2022/04/30 08:58:40;;;;;;;;;10.67;10.67;;;;;;;;5011574;28;9481;-77
2022/04/30 09:01:10;;;;;;;;;8.67;8.67;;;;;;;;5010499;28;9378;-74
2022/04/30 09:03:39;;;;;;;;;9.33;9.00;;;;;;;;5013237;28;9286;-75
2022/04/30 09:06:06;;;;;;;;;9.33;8.33;;;;;;;;5022526;28;9140;-75
2022/04/30 09:08:35;;;;;;;;;6.67;6.33;;;;;;;;5023823;28;9082;-74
2022/04/30 09:11:07;;;;;;;;;9.00;9.00;;;;;;;;5018572;28;9131;-73
2022/04/30 09:13:43;;;;;;;;;6.00;6.00;;;;;;;;5020782;28;9292;-79
2022/04/30 09:16:20;;;;;;;;;6.00;6.00;;;;;;;;5020556;28;9097;-79
2022/04/30 09:18:48;;;;;;;;;6.00;6.00;;;;;;;;5012072;28;8873;-79
2022/04/30 09:21:16;;;;;;;;;7.33;7.33;;;;;;;;5021932;28;8961;-76
2022/04/30 09:23:44;;;;;;;;;5.00;5.00;;;;;;;;5013982;28;9011;-80
2022/04/30 09:26:12;;;;;;;;;4.00;4.00;;;;;;;;5013536;28;8880;-75
2022/04/30 09:28:42;;;;;;;;;4.25;4.25;;;;;;;;5020540;28;8863;-81
2022/04/30 09:31:11;;;;;;;;;5.00;5.00;;;;;;;;5011692;28;8798;-77
2022/04/30 09:33:40;;;;;;;;;5.00;5.00;;;;;;;;5022235;28;8889;-76
2022/04/30 09:38:54;;;;;;;;;7.00;7.00;;;;;;;;5002876;28;10841;-77
2022/04/30 09:41:29;;;;;;;;;5.00;5.00;;;;;;;;5007774;28;8878;-78
2022/04/30 09:44:06;;;;;;;;;6.25;4.75;;;;;;;;5013615;28;8955;-76
2022/04/30 09:46:36;;;;;;;;;6.00;5.25;;;;;;;;5011997;28;8872;-77
2022/04/30 09:54:37;;;;;;;;;5.50;5.25;;;;;;;;5035752;28;8844;-74
2022/04/30 09:57:07;;;;;;;;;4.50;3.25;;;;;;;;5009497;28;8848;-76
2022/04/30 09:59:38;;;;;;;;;5.00;5.00;;;;;;;;5016001;28;9611;-77
2022/04/30 10:02:07;;;;;;;;;6.25;5.50;;;;;;;;5013861;28;8841;-78
2022/04/30 10:04:36;;;;;;;;;6.00;4.75;;;;;;;;5013551;28;8882;-82
2022/04/30 10:07:05;;;;;;;;;5.50;5.50;;;;;;;;5004396;28;8984;-82
2022/04/30 10:09:35;;;;;;;;;11.00;5.00;;;;;;;;5005509;28;8846;-80
2022/04/30 10:12:09;;;;;;;;;6.00;6.00;;;;;;;;5011876;28;8888;-79
2022/04/30 10:14:49;;;;;;;;;4.50;4.50;;;;;;;;5017202;28;8971;-76
2022/04/30 10:17:18;;;;;;;;;5.00;5.00;;;;;;;;5009704;28;9800;-79
2022/04/30 10:19:56;;;;;;;;;5.75;5.75;;;;;;;;5019974;28;8854;-88
2022/04/30 10:22:23;;;;;;;;;3.50;3.50;;;;;;;;5025134;28;8889;-78
2022/04/30 10:24:57;;;;;;;;;3.50;3.00;;;;;;;;5009384;28;8892;-79
2022/04/30 10:27:24;;;;;;;;;5.50;4.00;;;;;;;;5019187;28;8889;-84
2022/04/30 10:29:55;;;;;;;;;2.00;2.00;;;;;;;;5018350;28;8882;-82
2022/04/30 10:32:30;;;;;;;;;6.50;3.75;;;;;;;;5022499;28;8826;-81
2022/04/30 10:34:58;;;;;;;;;6.00;4.00;;;;;;;;5014704;28;9017;-81
2022/04/30 10:37:32;;;;;;;;;4.00;4.00;;;;;;;;5021616;28;8865;-85
2022/04/30 10:40:01;;;;;;;;;4.75;4.75;;;;;;;;5021282;28;8861;-80
2022/04/30 10:42:30;;;;;;;;;4.50;4.50;;;;;;;;5015194;28;8884;-81
2022/04/30 10:44:59;;;;;;;;;6.00;4.25;;;;;;;;5024909;28;9031;-79
2022/04/30 10:47:27;;;;;;;;;4.25;4.25;;;;;;;;5020784;28;8881;-76
2022/04/30 10:49:55;;;;;;;;;4.00;4.00;;;;;;;;5014440;28;8873;-84
2022/04/30 10:52:24;;;;;;;;;5.00;3.50;;;;;;;;5015511;28;8865;-81
2022/04/30 10:54:54;;;;;;;;;5.75;5.75;;;;;;;;5011611;28;8870;-77
2022/04/30 10:57:22;;;;;;;;;6.75;5.00;;;;;;;;5019245;28;8861;-88
2022/04/30 11:00:02;;;;;;;;;5.00;5.00;;;;;;;;5020949;28;8846;-79
2022/04/30 11:02:33;;;;;;;;;4.00;4.00;;;;;;;;5040944;28;10122;-76
2022/04/30 11:05:01;;;;;;;;;4.00;4.00;;;;;;;;5027881;28;8874;-80
2022/04/30 11:07:30;;;;;;;;;5.00;5.00;;;;;;;;5035102;28;8884;-87
2022/04/30 11:09:58;;;;;;;;;5.50;5.50;;;;;;;;5024850;28;8864;-86
2022/04/30 11:12:31;;;;;;;;;4.00;4.00;;;;;;;;5023104;28;8860;-81
2022/04/30 11:15:01;;;;;;;;;4.75;4.75;;;;;;;;5030110;28;8906;-83
2022/04/30 11:17:28;;;;;;;;;5.25;4.00;;;;;;;;5024133;28;8868;-88
2022/04/30 11:19:55;;;;;;;;;4.00;3.75;;;;;;;;5025223;28;9302;-78
2022/04/30 11:22:23;;;;;;;;;4.00;4.00;;;;;;;;5027244;28;8898;-84
2022/04/30 11:24:51;;;;;;;;;5.00;5.00;;;;;;;;5026794;28;8872;-81
2022/04/30 11:27:18;;;;;;;;;5.25;5.25;;;;;;;;5021892;28;8901;-80
2022/04/30 11:29:53;;;;;;;;;4.00;4.00;;;;;;;;5024537;28;8893;-82
2022/04/30 11:32:23;;;;;;;;;4.25;3.75;;;;;;;;5028008;28;8871;-81
2022/04/30 11:34:51;;;;;;;;;13.00;11.50;;;;;;;;5030616;28;9638;-83
2022/04/30 11:37:19;;;;;;;;;8.25;6.00;;;;;;;;5032953;28;8844;-78
2022/04/30 11:39:46;;;;;;;;;4.25;4.25;;;;;;;;5032975;28;8913;-83
2022/04/30 11:42:13;;;;;;;;;4.25;4.25;;;;;;;;5036514;28;8865;-82
2022/04/30 11:44:41;;;;;;;;;6.00;5.25;;;;;;;;5029703;28;8865;-80
2022/04/30 11:47:09;;;;;;;;;2.50;2.50;;;;;;;;5034528;28;8928;-82
2022/04/30 11:49:38;;;;;;;;;4.00;4.00;;;;;;;;5030115;28;8881;-82
2022/04/30 11:52:07;;;;;;;;;6.50;4.00;;;;;;;;5039526;28;8869;-82
2022/04/30 11:54:38;;;;;;;;;4.25;4.25;;;;;;;;5033946;28;8853;-83
2022/04/30 11:57:05;;;;;;;;;5.50;5.50;;;;;;;;5030434;28;8899;-82
2022/04/30 11:59:36;;;;;;;;;3.00;3.00;;;;;;;;5036962;28;8867;-80
2022/04/30 12:02:04;;;;;;;;;5.25;5.25;;;;;;;;5038352;28;8829;-81
2022/04/30 12:04:35;;;;;;;;;5.25;5.00;;;;;;;;5033431;28;8984;-81
2022/04/30 12:07:06;;;;;;;;;5.00;5.00;;;;;;;;5040144;28;9767;-82
2022/04/30 12:09:35;;;;;;;;;4.75;4.75;;;;;;;;5038559;28;9023;-82
2022/04/30 12:12:03;;;;;;;;;4.00;4.00;;;;;;;;5028998;28;8877;-82
2022/04/30 12:14:30;;;;;;;;;6.00;6.00;;;;;;;;5027396;28;8884;-82
2022/04/30 12:16:59;;;;;;;;;4.50;4.50;;;;;;;;5037119;28;9062;-79
2022/04/30 12:25:09;;;;;;;;;6.20;5.80;;;;;;;;5027746;28;8859;-79
2022/04/30 12:27:37;;;;;;;;;2.60;2.60;;;;;;;;5035567;28;8894;-81
2022/04/30 12:30:12;;;;;;;;;4.25;4.25;;;;;;;;5043980;28;8881;-80
2022/04/30 12:32:50;;;;;;;;;6.40;6.40;;;;;;;;5033190;28;9027;-79
2022/04/30 12:35:25;;;;;;;;;5.60;5.60;;;;;;;;5039011;28;8903;-79
2022/04/30 12:38:05;;;;;;;;;5.20;5.20;;;;;;;;5040326;28;8873;-80
2022/04/30 12:40:32;;;;;;;;;6.00;6.00;;;;;;;;5042781;28;8891;-80
2022/04/30 12:43:00;;;;;;;;;6.40;6.40;;;;;;;;5043857;28;8995;-80
2022/04/30 12:45:27;;;;;;;;;5.60;5.60;;;;;;;;5041068;28;8930;-80
2022/04/30 12:47:55;;;;;;;;;4.00;4.00;;;;;;;;5039590;28;8854;-80
2022/04/30 12:50:22;;;;;;;;;8.75;7.00;;;;;;;;5036350;28;8873;-80
2022/04/30 12:52:49;;;;;;;;;7.00;7.00;;;;;;;;5037242;28;8962;-82
2022/04/30 12:55:19;;;;;;;;;4.00;4.00;;;;;;;;5027287;28;8914;-81
2022/04/30 12:57:46;;;;;;;;;8.60;7.00;;;;;;;;5037736;28;8875;-83
2022/04/30 13:00:15;;;;;;;;;5.60;3.80;;;;;;;;5039754;28;8853;-82
2022/04/30 13:02:44;;;;;;;;;6.60;6.60;;;;;;;;5038614;28;8930;-84
2022/04/30 13:05:12;;;;;;;;;9.00;7.00;;;;;;;;5041315;28;8923;-82
2022/04/30 13:07:41;;;;;;;;;7.00;7.00;;;;;;;;5027799;28;8903;-80
2022/04/30 13:15:41;;;;;;;;;7.40;7.40;;;;;;;;5036674;28;9603;-84
2022/04/30 13:18:08;;;;;;;;;7.20;7.00;;;;;;;;5033667;28;8895;-79
2022/04/30 13:20:37;;;;;;;;;9.20;9.20;;;;;;;;5044486;28;8897;-82
2022/04/30 13:23:05;;;;;;;;;8.80;8.80;;;;;;;;5029958;28;8895;-80
2022/04/30 13:25:33;;;;;;;;;8.80;8.80;;;;;;;;5035381;28;8861;-80
2022/04/30 13:28:03;;;;;;;;;9.00;9.00;;;;;;;;5042986;28;8871;-80
2022/04/30 13:30:31;;;;;;;;;10.40;9.60;;;;;;;;5034829;28;8822;-81
2022/04/30 13:32:59;;;;;;;;;10.20;10.20;;;;;;;;5045294;28;8904;-83
2022/04/30 13:35:26;;;;;;;;;10.60;10.60;;;;;;;;5045697;28;8866;-80
2022/04/30 13:37:54;;;;;;;;;12.20;9.00;;;;;;;;5040726;28;8877;-80
2022/04/30 13:40:21;;;;;;;;;8.00;8.00;;;;;;;;5040238;28;8904;-81
2022/04/30 13:42:49;;;;;;;;;11.60;11.60;;;;;;;;5038416;28;8888;-81
2022/04/30 13:45:18;;;;;;;;;10.60;9.60;;;;;;;;5054640;28;8875;-81
2022/04/30 13:47:46;;;;;;;;;9.20;9.20;;;;;;;;5032238;28;8899;-81
2022/04/30 13:50:14;;;;;;;;;9.40;7.80;;;;;;;;5035607;28;9683;-81
2022/04/30 13:52:41;;;;;;;;;13.20;13.20;;;;;;;;5031390;28;8880;-82
2022/04/30 13:55:10;;;;;;;;;14.00;11.60;;;;;;;;5049769;28;8870;-82
2022/04/30 13:57:38;;;;;;;;;8.60;8.20;;;;;;;;5032824;28;8869;-81
2022/04/30 14:00:07;;;;;;;;;10.00;9.60;;;;;;;;5033555;28;8967;-81
2022/04/30 14:02:37;;;;;;;;;10.40;10.20;;;;;;;;5038412;28;8901;-83
2022/04/30 14:05:06;;;;;;;;;10.60;10.60;;;;;;;;5032884;28;9684;-82
2022/04/30 14:07:33;;;;;;;;;11.80;11.20;;;;;;;;5030781;28;8868;-80
2022/04/30 14:10:00;;;;;;;;;11.60;10.00;;;;;;;;5034995;28;8876;-83
2022/04/30 14:12:27;;;;;;;;;12.20;11.60;;;;;;;;5054647;28;9636;-81
2022/04/30 14:14:56;;;;;;;;;11.00;11.00;;;;;;;;5051854;28;8973;-80
2022/04/30 14:20:12;;;;;;;;;11.60;11.60;;;;;;;;5033401;28;8847;-78
2022/04/30 14:22:39;;;;;;;;;11.80;9.40;;;;;;;;5036958;28;8912;-83
2022/04/30 14:25:09;;;;;;;;;8.00;8.00;;;;;;;;5038900;28;8884;-81
2022/04/30 14:27:38;;;;;;;;;8.80;8.80;;;;;;;;5034822;28;9411;-88
2022/04/30 14:30:07;;;;;;;;;10.00;10.00;;;;;;;;5037285;28;9588;-82
2022/04/30 14:32:36;;;;;;;;;11.60;11.60;;;;;;;;5042404;28;8861;-84
2022/04/30 14:35:04;;;;;;;;;14.00;14.00;;;;;;;;5039991;28;8850;-80
2022/04/30 14:37:33;;;;;;;;;13.00;13.00;;;;;;;;5049341;28;8932;-84
2022/04/30 14:40:01;;;;;;;;;11.80;11.80;;;;;;;;5026678;28;9647;-87
2022/04/30 14:42:29;;;;;;;;;14.25;14.25;;;;;;;;5040480;28;8861;-81
2022/04/30 14:44:56;;;;;;;;;17.25;16.50;;;;;;;;5040308;28;8883;-84
2022/04/30 14:47:24;;;;;;;;;13.50;13.50;;;;;;;;5037921;28;8877;-84
2022/04/30 14:49:55;;;;;;;;;16.80;15.60;;;;;;;;5039312;28;8857;-85
2022/04/30 14:52:24;;;;;;;;;14.00;12.00;;;;;;;;5035346;28;8876;-82
2022/04/30 14:54:56;;;;;;;;;14.50;14.50;;;;;;;;5033685;28;8869;-81
2022/04/30 14:57:23;;;;;;;;;18.25;16.25;;;;;;;;5027767;28;8902;-84
2022/04/30 14:59:51;;;;;;;;;14.25;14.25;;;;;;;;5039299;28;8899;-84
2022/04/30 15:02:18;;;;;;;;;15.80;14.60;;;;;;;;5035475;28;8802;-80
2022/04/30 15:04:46;;;;;;;;;15.20;15.20;;;;;;;;5032972;28;8876;-83
2022/04/30 15:07:14;;;;;;;;;13.00;13.00;;;;;;;;5041548;28;8876;-81
2022/04/30 15:09:42;;;;;;;;;14.40;14.20;;;;;;;;5033298;28;8867;-84
2022/04/30 15:12:12;;;;;;;;;12.40;12.00;;;;;;;;5041237;28;8896;-78
2022/04/30 15:14:40;;;;;;;;;12.00;12.00;;;;;;;;5038235;28;9422;-86
2022/04/30 15:17:10;;;;;;;;;12.80;12.80;;;;;;;;5033155;28;8879;-82
2022/04/30 15:19:37;;;;;;;;;14.20;13.40;;;;;;;;5036738;28;8915;-82
2022/04/30 15:22:05;;;;;;;;;12.20;12.20;;;;;;;;5039096;28;8877;-81
2022/04/30 15:24:32;;;;;;;;;12.20;12.20;;;;;;;;5033999;28;8887;-84
2022/04/30 15:27:00;;;;;;;;;12.00;12.00;;;;;;;;5041360;28;9027;-81
2022/04/30 15:29:30;;;;;;;;;15.20;15.00;;;;;;;;5030105;28;8857;-80